createdAt,value
2022-10-23T00:01:13.702Z,13.00
2022-10-23T00:03:41.693Z,13.00
2022-10-23T00:06:10.414Z,13.00
2022-10-23T00:08:38.598Z,13.00
2022-10-23T00:11:08.802Z,13.00
2022-10-23T00:13:38.638Z,13.00
2022-10-23T00:16:07.687Z,13.00
2022-10-23T00:18:35.818Z,13.10
2022-10-23T00:21:04.333Z,13.00
2022-10-23T00:23:32.429Z,13.00
2022-10-23T00:26:00.741Z,13.00
2022-10-23T00:28:28.715Z,13.10
2022-10-23T00:30:58.043Z,13.00
2022-10-23T00:33:25.950Z,13.10
2022-10-23T00:35:53.929Z,13.00
2022-10-23T00:38:21.924Z,13.10
2022-10-23T00:43:26.094Z,13.10
2022-10-23T00:45:54.054Z,13.10
2022-10-23T00:48:23.688Z,13.10
2022-10-23T00:50:51.976Z,13.10
2022-10-23T00:53:22.381Z,13.10
2022-10-23T00:55:53.179Z,13.10
2022-10-23T00:58:21.971Z,13.10
2022-10-23T01:00:52.040Z,13.10
2022-10-23T01:03:22.660Z,13.10
2022-10-23T01:06:01.582Z,13.10
2022-10-23T01:08:36.083Z,13.10
2022-10-23T01:11:09.780Z,13.00
2022-10-23T01:13:45.698Z,13.10
2022-10-23T01:16:19.672Z,13.00
2022-10-23T01:18:52.627Z,13.10
2022-10-23T01:21:27.908Z,13.10
2022-10-23T01:24:09.071Z,13.10
2022-10-23T01:26:56.351Z,13.10
2022-10-23T01:29:34.659Z,13.10
2022-10-23T01:32:08.010Z,13.10
2022-10-23T01:34:44.024Z,13.10
2022-10-23T01:37:15.087Z,13.10
2022-10-23T01:39:48.377Z,13.10
2022-10-23T01:42:21.947Z,13.10
2022-10-23T01:44:55.528Z,13.10
2022-10-23T01:47:27.138Z,13.10
2022-10-23T01:49:57.376Z,13.00
2022-10-23T01:52:25.690Z,13.10
2022-10-23T01:54:57.311Z,13.10
2022-10-23T01:57:28.021Z,13.10
2022-10-23T02:00:02.414Z,13.10
2022-10-23T02:02:33.549Z,13.10
2022-10-23T02:05:07.611Z,13.10
2022-10-23T02:07:36.279Z,13.10
2022-10-23T02:10:06.142Z,13.20
2022-10-23T02:12:46.157Z,13.10
2022-10-23T02:15:22.180Z,13.10
2022-10-23T02:17:58.339Z,13.10
2022-10-23T02:20:32.459Z,13.10
2022-10-23T02:23:03.908Z,13.20
2022-10-23T02:25:37.111Z,13.10
2022-10-23T02:28:11.687Z,13.10
2022-10-23T02:30:45.359Z,13.10
2022-10-23T02:33:14.939Z,13.10
2022-10-23T02:35:42.889Z,13.10
2022-10-23T02:38:31.006Z,13.10
2022-10-23T02:41:02.290Z,13.10
2022-10-23T02:43:37.890Z,13.10
2022-10-23T02:46:13.963Z,13.10
2022-10-23T02:48:48.910Z,13.10
2022-10-23T02:51:22.786Z,13.10
2022-10-23T02:56:38.649Z,13.10
2022-10-23T02:59:11.174Z,13.00
2022-10-23T03:01:48.228Z,13.00
2022-10-23T03:04:18.402Z,13.00
2022-10-23T03:06:46.975Z,13.00
2022-10-23T03:09:14.906Z,13.00
2022-10-23T03:11:42.834Z,13.00
2022-10-23T03:14:12.023Z,13.00
2022-10-23T03:16:41.393Z,13.00
2022-10-23T03:19:09.565Z,13.00
2022-10-23T03:21:38.001Z,13.00
2022-10-23T03:24:06.393Z,13.00
2022-10-23T03:26:34.355Z,13.00
2022-10-23T03:29:02.357Z,13.00
2022-10-23T03:31:30.310Z,13.00
2022-10-23T03:33:59.659Z,13.00
2022-10-23T03:36:27.574Z,13.00
2022-10-23T03:38:56.437Z,13.00
2022-10-23T03:41:24.418Z,13.00
2022-10-23T03:43:52.416Z,13.00
2022-10-23T03:46:20.406Z,13.00
2022-10-23T03:48:48.342Z,13.00
2022-10-23T03:51:17.618Z,13.00
2022-10-23T03:53:45.502Z,12.90
2022-10-23T03:56:13.441Z,12.90
2022-10-23T03:58:41.413Z,13.00
2022-10-23T04:01:09.774Z,13.00
2022-10-23T04:03:37.892Z,13.00
2022-10-23T04:06:06.177Z,13.00
2022-10-23T04:08:35.497Z,12.90
2022-10-23T04:11:03.415Z,12.90
2022-10-23T04:13:31.493Z,13.00
2022-10-23T04:15:59.445Z,13.00
2022-10-23T04:18:27.380Z,12.90
2022-10-23T04:20:55.385Z,12.90
2022-10-23T04:23:23.321Z,12.90
2022-10-23T04:25:52.587Z,12.90
2022-10-23T04:28:20.540Z,13.00
2022-10-23T04:30:48.496Z,12.90
2022-10-23T04:33:16.395Z,12.90
2022-10-23T04:35:44.413Z,12.90
2022-10-23T04:38:12.473Z,12.90
2022-10-23T04:40:40.464Z,12.90
2022-10-23T04:43:09.761Z,12.90
2022-10-23T04:45:37.684Z,12.90
2022-10-23T04:48:05.708Z,12.90
2022-10-23T04:50:33.699Z,13.00
2022-10-23T04:53:01.673Z,13.00
2022-10-23T04:55:29.625Z,12.90
2022-10-23T04:57:57.517Z,12.90
2022-10-23T05:00:27.172Z,12.90
2022-10-23T05:02:55.176Z,12.90
2022-10-23T05:05:23.206Z,12.90
2022-10-23T05:07:51.134Z,12.90
2022-10-23T05:10:19.299Z,12.90
2022-10-23T05:12:47.261Z,12.90
2022-10-23T05:15:15.216Z,12.90
2022-10-23T05:17:46.801Z,12.90
2022-10-23T05:20:19.332Z,13.00
2022-10-23T05:22:48.836Z,13.00
2022-10-23T05:25:17.912Z,13.00
2022-10-23T05:27:46.238Z,13.00
2022-10-23T05:30:14.846Z,13.00
2022-10-23T05:32:44.407Z,13.00
2022-10-23T05:35:17.020Z,13.00
2022-10-23T05:37:47.997Z,12.90
2022-10-23T05:40:16.068Z,12.90
2022-10-23T05:42:44.546Z,12.90
2022-10-23T05:45:12.991Z,13.00
2022-10-23T05:47:40.955Z,12.90
2022-10-23T05:50:10.660Z,12.90
2022-10-23T05:52:38.656Z,12.90
2022-10-23T05:55:07.346Z,12.80
2022-10-23T05:57:35.442Z,12.90
2022-10-23T06:00:03.411Z,12.90
2022-10-23T06:02:31.466Z,12.90
2022-10-23T06:04:59.463Z,12.90
2022-10-23T06:07:32.438Z,13.00
2022-10-23T06:10:03.193Z,13.00
2022-10-23T06:12:33.029Z,13.00
2022-10-23T06:15:01.011Z,13.00
2022-10-23T06:17:29.455Z,13.10
2022-10-23T06:20:00.833Z,13.10
2022-10-23T06:22:30.329Z,13.10
2022-10-23T06:24:58.349Z,13.10
2022-10-23T06:27:26.288Z,13.10
2022-10-23T06:29:54.267Z,13.10
2022-10-23T06:32:22.223Z,13.10
2022-10-23T06:34:50.186Z,13.10
2022-10-23T06:37:18.139Z,13.10
2022-10-23T06:39:47.394Z,13.10
2022-10-23T06:42:15.335Z,13.10
2022-10-23T06:44:43.255Z,13.20
2022-10-23T06:47:13.101Z,13.20
2022-10-23T06:49:41.076Z,13.20
2022-10-23T06:52:14.490Z,13.10
2022-10-23T06:54:52.514Z,13.10
2022-10-23T06:57:20.434Z,13.10
2022-10-23T06:59:48.350Z,13.10
2022-10-23T07:02:16.339Z,13.20
2022-10-23T07:04:44.306Z,13.20
2022-10-23T07:07:12.214Z,13.20
2022-10-23T07:09:40.166Z,13.20
2022-10-23T07:12:09.615Z,13.20
2022-10-23T07:14:37.586Z,13.30
2022-10-23T07:17:05.713Z,13.30
2022-10-23T07:19:33.702Z,13.40
2022-10-23T07:22:01.642Z,13.40
2022-10-23T07:24:31.418Z,13.40
2022-10-23T07:26:59.528Z,13.40
2022-10-23T07:29:28.809Z,13.40
2022-10-23T07:31:57.549Z,13.40
2022-10-23T07:34:25.529Z,13.40
2022-10-23T07:36:54.753Z,13.40
2022-10-23T07:39:22.992Z,13.40
2022-10-23T07:41:51.386Z,13.40
2022-10-23T07:44:21.039Z,13.40
2022-10-23T07:46:52.487Z,13.50
2022-10-23T07:49:20.423Z,13.50
2022-10-23T07:51:51.282Z,13.60
2022-10-23T07:54:19.750Z,13.70
2022-10-23T07:56:47.999Z,13.80
2022-10-23T07:59:16.215Z,13.90
2022-10-23T08:01:45.769Z,14.00
2022-10-23T08:04:15.362Z,14.00
2022-10-23T08:06:43.411Z,14.00
2022-10-23T08:09:11.354Z,14.00
2022-10-23T08:11:39.305Z,14.00
2022-10-23T08:14:08.259Z,14.00
2022-10-23T08:16:38.357Z,14.00
2022-10-23T08:19:07.866Z,14.00
2022-10-23T08:21:37.269Z,14.00
2022-10-23T08:24:06.091Z,14.10
2022-10-23T08:26:34.070Z,14.10
2022-10-23T08:29:02.435Z,14.10
2022-10-23T08:31:30.399Z,14.20
2022-10-23T08:33:58.382Z,14.30
2022-10-23T08:36:28.341Z,14.40
2022-10-23T08:38:59.209Z,14.40
2022-10-23T08:41:30.297Z,14.40
2022-10-23T08:44:08.218Z,14.40
2022-10-23T08:46:41.545Z,14.50
2022-10-23T08:49:25.133Z,14.50
2022-10-23T08:51:57.002Z,14.60
2022-10-23T08:54:35.157Z,14.50
2022-10-23T08:57:10.322Z,14.50
2022-10-23T08:59:43.972Z,14.50
2022-10-23T09:02:18.095Z,14.50
2022-10-23T09:04:48.880Z,14.40
2022-10-23T09:07:29.626Z,14.40
2022-10-23T09:10:11.625Z,14.30
2022-10-23T09:12:39.880Z,14.30
2022-10-23T09:15:21.188Z,14.30
2022-10-23T09:17:55.068Z,14.30
2022-10-23T09:20:25.316Z,14.30
2022-10-23T09:22:56.880Z,14.40
2022-10-23T09:25:29.108Z,14.50
2022-10-23T09:28:01.366Z,14.60
2022-10-23T09:30:34.868Z,14.70
2022-10-23T09:33:14.062Z,14.70
2022-10-23T09:35:54.132Z,14.80
2022-10-23T09:38:33.108Z,14.90
2022-10-23T09:41:07.232Z,14.80
2022-10-23T09:43:35.408Z,14.90
2022-10-23T09:46:06.177Z,14.90
2022-10-23T09:48:35.396Z,14.90
2022-10-23T09:51:05.220Z,14.80
2022-10-23T09:53:36.120Z,14.90
2022-10-23T09:56:11.806Z,14.90
2022-10-23T09:58:43.765Z,14.90
2022-10-23T10:01:24.907Z,15.00
2022-10-23T10:03:53.849Z,15.10
2022-10-23T10:06:27.805Z,15.10
2022-10-23T10:08:58.123Z,15.10
2022-10-23T10:11:35.091Z,15.20
2022-10-23T10:14:21.151Z,15.20
2022-10-23T10:16:53.411Z,15.20
2022-10-23T10:19:34.085Z,15.20
2022-10-23T10:22:09.828Z,15.20
2022-10-23T10:24:47.399Z,15.20
2022-10-23T10:27:28.288Z,15.20
2022-10-23T10:30:05.335Z,15.30
2022-10-23T10:32:41.059Z,15.30
2022-10-23T10:35:23.314Z,15.40
2022-10-23T10:38:13.506Z,15.40
2022-10-23T10:40:44.203Z,15.50
2022-10-23T10:43:30.440Z,15.50
2022-10-23T10:46:05.046Z,15.60
2022-10-23T10:48:42.906Z,15.70
2022-10-23T10:51:18.939Z,15.70
2022-10-23T10:53:58.477Z,15.70
2022-10-23T10:56:32.572Z,15.70
2022-10-23T10:59:05.841Z,15.60
2022-10-23T11:01:39.112Z,15.60
2022-10-23T11:04:15.330Z,15.60
2022-10-23T11:06:46.353Z,15.60
2022-10-23T11:09:21.306Z,15.70
2022-10-23T11:11:50.058Z,15.80
2022-10-23T11:14:22.069Z,15.90
2022-10-23T11:16:52.613Z,15.90
2022-10-23T11:19:25.056Z,15.90
2022-10-23T11:22:01.432Z,15.90
2022-10-23T11:25:21.276Z,15.90
2022-10-23T11:28:03.379Z,15.80
2022-10-23T11:30:41.433Z,15.80
2022-10-23T11:33:38.381Z,15.80
2022-10-23T11:36:15.525Z,15.90
2022-10-23T11:38:45.732Z,15.90
2022-10-23T11:41:25.672Z,16.00
2022-10-23T11:43:57.145Z,16.10
2022-10-23T11:46:35.130Z,16.30
2022-10-23T11:49:05.975Z,16.30
2022-10-23T11:51:35.776Z,16.40
2022-10-23T11:54:09.345Z,16.40
2022-10-23T11:56:37.643Z,16.40
2022-10-23T11:59:24.817Z,16.40
2022-10-23T12:01:55.986Z,16.40
2022-10-23T12:04:27.201Z,16.40
2022-10-23T12:06:57.936Z,16.40
2022-10-23T12:09:30.361Z,16.40
2022-10-23T12:14:37.700Z,16.70
2022-10-23T12:17:28.932Z,16.90
2022-10-23T12:20:02.896Z,17.10
2022-10-23T12:22:38.926Z,17.00
2022-10-23T12:25:10.362Z,17.00
2022-10-23T12:27:46.214Z,17.00
2022-10-23T12:30:21.323Z,17.00
2022-10-23T12:33:06.588Z,17.00
2022-10-23T12:36:17.972Z,17.10
2022-10-23T12:38:47.668Z,16.90
2022-10-23T12:41:17.959Z,16.90
2022-10-23T12:43:52.928Z,17.00
2022-10-23T12:46:40.380Z,17.20
2022-10-23T12:49:16.731Z,17.40
2022-10-23T12:51:45.292Z,17.60
2022-10-23T12:54:19.008Z,17.70
2022-10-23T12:56:47.816Z,17.80
2022-10-23T12:59:18.083Z,18.00
2022-10-23T13:01:50.457Z,18.20
2022-10-23T13:04:28.863Z,18.40
2022-10-23T13:06:58.476Z,18.50
2022-10-23T13:09:30.915Z,18.40
2022-10-23T13:12:00.008Z,18.40
2022-10-23T13:14:33.471Z,18.30
2022-10-23T13:17:04.087Z,18.20
2022-10-23T13:19:33.687Z,18.00
2022-10-23T13:22:02.410Z,17.80
2022-10-23T13:24:31.659Z,17.70
2022-10-23T13:27:00.026Z,17.70
2022-10-23T13:29:30.635Z,17.90
2022-10-23T13:31:59.057Z,18.20
2022-10-23T13:34:28.752Z,18.50
2022-10-23T13:37:01.687Z,18.80
2022-10-23T13:39:31.979Z,19.20
2022-10-23T13:42:07.283Z,19.50
2022-10-23T13:44:37.319Z,19.80
2022-10-23T13:47:05.703Z,20.00
2022-10-23T13:49:33.640Z,20.20
2022-10-23T13:52:02.937Z,20.30
2022-10-23T13:54:30.988Z,20.30
2022-10-23T13:56:58.980Z,20.30
2022-10-23T13:59:26.994Z,20.30
2022-10-23T14:01:55.087Z,20.10
2022-10-23T14:04:23.957Z,19.80
2022-10-23T14:06:58.303Z,19.50
2022-10-23T14:09:27.583Z,19.20
2022-10-23T14:11:55.464Z,18.70
2022-10-23T14:14:23.447Z,18.40
2022-10-23T14:16:52.782Z,18.10
2022-10-23T14:19:20.769Z,18.00
2022-10-23T14:21:48.758Z,17.90
2022-10-23T14:24:16.713Z,17.70
2022-10-23T14:26:46.079Z,17.60
2022-10-23T14:29:21.449Z,17.40
2022-10-23T14:31:51.190Z,17.30
2022-10-23T14:34:19.189Z,17.30
2022-10-23T14:36:56.679Z,17.20
2022-10-23T14:39:31.990Z,17.20
2022-10-23T14:42:01.326Z,17.00
2022-10-23T14:44:29.285Z,16.80
2022-10-23T14:46:57.285Z,16.70
2022-10-23T14:49:25.182Z,16.50
2022-10-23T14:51:53.119Z,16.30
2022-10-23T14:54:21.089Z,16.10
2022-10-23T14:56:49.086Z,15.90
2022-10-23T14:59:18.456Z,15.80
2022-10-23T15:01:48.459Z,15.70
2022-10-23T15:04:17.021Z,15.70
2022-10-23T15:06:46.306Z,15.70
2022-10-23T15:09:14.584Z,15.60
2022-10-23T15:11:42.617Z,15.50
2022-10-23T15:14:10.583Z,15.50
2022-10-23T15:16:42.209Z,15.40
2022-10-23T15:19:13.745Z,15.40
2022-10-23T15:21:45.366Z,15.50
2022-10-23T15:24:13.351Z,15.50
2022-10-23T15:26:43.136Z,15.50
2022-10-23T15:29:12.195Z,15.30
2022-10-23T15:31:47.285Z,15.20
2022-10-23T15:34:19.345Z,15.20
2022-10-23T15:36:47.958Z,15.10
2022-10-23T15:39:18.305Z,15.00
2022-10-23T15:41:46.562Z,14.90
2022-10-23T15:44:16.314Z,14.80
2022-10-23T15:46:45.669Z,14.80
2022-10-23T15:49:14.249Z,14.80
2022-10-23T15:51:42.808Z,14.80
2022-10-23T15:54:16.395Z,14.80
2022-10-23T15:56:44.445Z,14.70
2022-10-23T15:59:12.475Z,14.70
2022-10-23T16:01:40.565Z,14.60
2022-10-23T16:04:10.151Z,14.60
2022-10-23T16:06:38.105Z,14.60
2022-10-23T16:09:06.148Z,14.50
2022-10-23T16:11:36.228Z,14.40
2022-10-23T16:14:05.489Z,14.40
2022-10-23T16:16:34.776Z,14.30
2022-10-23T16:19:04.281Z,14.20
2022-10-23T16:21:35.995Z,14.20
2022-10-23T16:24:06.664Z,14.10
2022-10-23T16:26:35.100Z,14.00
2022-10-23T16:29:06.718Z,14.00
2022-10-23T16:31:35.490Z,13.90
2022-10-23T16:34:05.716Z,13.90
2022-10-23T16:36:38.956Z,13.80
2022-10-23T16:39:08.069Z,13.80
2022-10-23T16:41:36.111Z,13.70
2022-10-23T16:44:04.312Z,13.70
2022-10-23T16:46:34.011Z,13.60
2022-10-23T16:49:02.955Z,13.60
2022-10-23T16:51:31.583Z,13.60
2022-10-23T16:54:01.168Z,13.60
2022-10-23T16:56:30.855Z,13.50
2022-10-23T16:59:00.745Z,13.60
2022-10-23T17:01:30.094Z,13.50
2022-10-23T17:03:58.427Z,13.50
2022-10-23T17:06:28.343Z,13.50
2022-10-23T17:08:57.138Z,13.50
2022-10-23T17:11:28.551Z,13.40
2022-10-23T17:13:59.822Z,13.40
2022-10-23T17:16:29.123Z,13.30
2022-10-23T17:18:57.748Z,13.30
2022-10-23T17:21:25.936Z,13.30
2022-10-23T17:23:54.052Z,13.20
2022-10-23T17:26:23.091Z,13.20
2022-10-23T17:28:52.727Z,13.10
2022-10-23T17:31:22.760Z,13.10
2022-10-23T17:33:53.991Z,13.10
2022-10-23T17:36:22.899Z,13.00
2022-10-23T17:38:50.851Z,13.00
2022-10-23T17:41:21.255Z,12.90
2022-10-23T17:43:49.639Z,12.90
2022-10-23T17:46:19.817Z,12.80
2022-10-23T17:48:47.772Z,12.80
2022-10-23T17:51:17.910Z,12.80
2022-10-23T17:53:48.467Z,12.70
2022-10-23T17:56:19.132Z,12.70
2022-10-23T17:58:47.386Z,12.70
2022-10-23T18:01:19.900Z,12.60
2022-10-23T18:03:49.771Z,12.60
2022-10-23T18:06:19.579Z,12.50
2022-10-23T18:08:48.604Z,12.50
2022-10-23T18:11:18.523Z,12.40
2022-10-23T18:13:47.455Z,12.40
2022-10-23T18:16:16.154Z,12.40
2022-10-23T18:18:48.084Z,12.30
2022-10-23T18:21:17.371Z,12.40
2022-10-23T18:23:45.502Z,12.30
2022-10-23T18:26:16.683Z,12.30
2022-10-23T18:28:45.123Z,12.20
2022-10-23T18:31:13.999Z,12.20
2022-10-23T18:33:42.314Z,12.20
2022-10-23T18:36:22.962Z,12.10
2022-10-23T18:38:51.471Z,12.10
2022-10-23T18:41:23.573Z,12.10
2022-10-23T18:43:52.330Z,12.00
2022-10-23T18:46:21.563Z,12.00
2022-10-23T18:48:51.624Z,12.00
2022-10-23T18:51:22.831Z,11.90
2022-10-23T18:53:50.897Z,12.00
2022-10-23T18:56:22.422Z,12.00
2022-10-23T18:58:50.933Z,12.00
2022-10-23T19:01:19.507Z,12.00
2022-10-23T19:03:47.782Z,12.00
2022-10-23T19:06:16.332Z,11.90
2022-10-23T19:08:46.843Z,11.90
2022-10-23T19:11:16.659Z,11.90
2022-10-23T19:13:44.642Z,11.80
2022-10-23T19:16:16.037Z,11.80
2022-10-23T19:18:49.591Z,11.80
2022-10-23T19:21:18.883Z,11.80
2022-10-23T19:23:50.472Z,11.80
2022-10-23T19:26:18.830Z,11.70
2022-10-23T19:28:49.132Z,11.70
2022-10-23T19:31:17.239Z,11.70
2022-10-23T19:33:45.232Z,11.70
2022-10-23T19:36:14.457Z,11.70
2022-10-23T19:38:42.740Z,11.70
2022-10-23T19:41:12.123Z,11.70
2022-10-23T19:43:40.094Z,11.70
2022-10-23T19:46:11.200Z,11.70
2022-10-23T19:48:42.575Z,11.70
2022-10-23T19:51:10.797Z,11.60
2022-10-23T19:53:38.826Z,11.50
2022-10-23T19:56:08.272Z,11.50
2022-10-23T19:58:37.651Z,11.50
2022-10-23T20:01:13.286Z,11.50
2022-10-23T20:03:42.548Z,11.50
2022-10-23T20:06:12.241Z,11.50
2022-10-23T20:08:40.326Z,11.50
2022-10-23T20:11:09.207Z,11.50
2022-10-23T20:13:38.521Z,11.50
2022-10-23T20:16:07.013Z,11.50
2022-10-23T20:18:35.849Z,11.50
2022-10-23T20:21:03.814Z,11.50
2022-10-23T20:23:31.757Z,11.50
2022-10-23T20:26:06.539Z,11.50
2022-10-23T20:28:34.733Z,11.50
2022-10-23T20:31:08.422Z,11.50
2022-10-23T20:33:36.474Z,11.40
2022-10-23T20:36:04.501Z,11.40
2022-10-23T20:38:32.580Z,11.30
2022-10-23T20:41:05.791Z,11.30
2022-10-23T20:43:34.621Z,11.30
2022-10-23T20:46:06.564Z,11.30
2022-10-23T20:48:36.585Z,11.30
2022-10-23T20:51:04.896Z,11.30
2022-10-23T20:53:32.989Z,11.30
2022-10-23T20:56:00.917Z,11.40
2022-10-23T20:58:28.826Z,11.40
2022-10-23T21:00:58.122Z,11.40
2022-10-23T21:03:28.581Z,11.40
2022-10-23T21:05:56.672Z,11.50
2022-10-23T21:08:24.644Z,11.50
2022-10-23T21:10:52.608Z,11.40
2022-10-23T21:13:20.576Z,11.40
2022-10-23T21:15:48.557Z,11.30
2022-10-23T21:18:27.182Z,11.30
2022-10-23T21:21:07.700Z,11.30
2022-10-23T21:23:35.701Z,11.40
2022-10-23T21:26:07.070Z,11.40
2022-10-23T21:28:36.008Z,11.40
2022-10-23T21:31:05.224Z,11.40
2022-10-23T21:33:33.652Z,11.40
2022-10-23T21:36:13.731Z,11.40
2022-10-23T21:38:43.644Z,11.40
2022-10-23T21:41:13.691Z,11.40
2022-10-23T21:43:41.768Z,11.40
2022-10-23T21:46:13.300Z,11.40
2022-10-23T21:48:41.429Z,11.40
2022-10-23T21:51:15.171Z,11.40
2022-10-23T21:53:44.423Z,11.40
2022-10-23T21:56:25.056Z,11.40
2022-10-23T21:58:53.271Z,11.40
2022-10-23T22:01:21.704Z,11.40
2022-10-23T22:03:50.131Z,11.40
2022-10-23T22:06:19.995Z,11.40
2022-10-23T22:08:49.629Z,11.30
2022-10-23T22:11:17.775Z,11.40
2022-10-23T22:13:47.019Z,11.40
2022-10-23T22:16:16.599Z,11.40
2022-10-23T22:18:45.171Z,11.40
2022-10-23T22:21:15.927Z,11.40
2022-10-23T22:23:44.596Z,11.30
2022-10-23T22:26:23.951Z,11.30
2022-10-23T22:28:53.247Z,11.30
2022-10-23T22:31:23.438Z,11.30
2022-10-23T22:33:51.563Z,11.30
2022-10-23T22:36:19.690Z,11.30
2022-10-23T22:38:47.899Z,11.30
2022-10-23T22:41:17.742Z,11.30
2022-10-23T22:43:45.839Z,11.40
2022-10-23T22:46:16.462Z,11.40
2022-10-23T22:48:45.744Z,11.40
2022-10-23T22:51:15.668Z,11.30
2022-10-23T22:53:44.262Z,11.30
2022-10-23T22:56:14.862Z,11.30
2022-10-23T22:58:44.566Z,11.30
2022-10-23T23:01:15.919Z,11.40
2022-10-23T23:03:44.326Z,11.40
2022-10-23T23:06:12.832Z,11.40
2022-10-23T23:08:41.862Z,11.40
2022-10-23T23:11:12.291Z,11.40
2022-10-23T23:13:40.403Z,11.30
2022-10-23T23:16:17.723Z,11.20
2022-10-23T23:18:45.634Z,11.10
2022-10-23T23:21:13.638Z,11.20
2022-10-23T23:23:41.803Z,11.20
2022-10-23T23:26:10.194Z,11.30
2022-10-23T23:28:38.410Z,11.30
2022-10-23T23:31:10.322Z,11.30
2022-10-23T23:33:38.679Z,11.30
2022-10-23T23:36:12.197Z,11.30
2022-10-23T23:38:40.598Z,11.20
2022-10-23T23:41:12.351Z,11.20
2022-10-23T23:43:40.277Z,11.10
2022-10-23T23:46:09.837Z,11.10
2022-10-23T23:48:38.650Z,11.20
2022-10-23T23:51:07.318Z,11.20
2022-10-23T23:53:35.305Z,11.20
2022-10-23T23:56:03.271Z,11.30
2022-10-23T23:58:31.270Z,11.30
